Time;durP1;ratioP1;P1;durP2;ratioP2;P2;SDS_P1;SDS_P2;PMS_P1;PMS_P2;Temp;Humidity;BMP_temperature;BMP_pressure;BME280_temperature;BME280_humidity;BME280_pressure;Samples;Min_cycle;Max_cycle;Signal;HPM_P1;HPM_P2
2021/07/22 00:01:54;;;;;;;15.35;8.85;;;;;;;13.65;100.00;94317.66;5094709;28;20210;-79
2021/07/22 00:04:20;;;;;;;19.05;9.65;;;;;;;13.69;100.00;94314.41;5094591;28;20205;-79
2021/07/22 00:06:47;;;;;;;18.48;9.43;;;;;;;13.76;100.00;94313.59;5078359;28;20280;-79
2021/07/22 00:09:14;;;;;;;16.27;9.20;;;;;;;13.86;100.00;94304.28;5074497;28;20207;-77
2021/07/22 00:11:44;;;;;;;14.90;8.18;;;;;;;13.92;100.00;94313.13;5074180;28;20727;-77
2021/07/22 00:14:11;;;;;;;15.90;9.02;;;;;;;13.87;100.00;94320.81;5073816;28;20285;-78
2021/07/22 00:16:37;;;;;;;22.48;8.90;;;;;;;13.80;100.00;94310.34;5074127;28;20199;-78
2021/07/22 00:19:03;;;;;;;18.42;8.77;;;;;;;13.77;100.00;94312.56;5074218;28;20561;-77
2021/07/22 00:21:30;;;;;;;18.40;9.27;;;;;;;13.78;100.00;94312.38;5074128;28;20214;-77
2021/07/22 00:23:56;;;;;;;16.25;8.45;;;;;;;13.71;100.00;94302.94;5090662;28;20209;-77
2021/07/22 00:26:24;;;;;;;16.50;8.98;;;;;;;13.66;100.00;94304.34;5093557;28;20317;-79
2021/07/22 00:28:51;;;;;;;19.70;9.35;;;;;;;13.59;100.00;94303.56;5094214;28;20194;-77
2021/07/22 00:31:17;;;;;;;16.60;8.68;;;;;;;13.50;100.00;94300.31;5094010;28;20198;-78
2021/07/22 00:33:43;;;;;;;17.00;8.43;;;;;;;13.44;100.00;94305.59;5094294;28;20198;-79
2021/07/22 00:36:12;;;;;;;17.55;9.02;;;;;;;13.35;100.00;94297.13;5093625;28;20452;-77
2021/07/22 00:38:39;;;;;;;16.73;8.55;;;;;;;13.27;100.00;94289.44;5094134;28;20202;-78
2021/07/22 00:41:10;;;;;;;17.88;8.27;;;;;;;13.20;100.00;94299.94;5093859;28;20244;-78
2021/07/22 00:43:39;;;;;;;16.20;9.02;;;;;;;13.17;100.00;94289.06;5093894;28;20285;-78
2021/07/22 00:46:05;;;;;;;17.97;8.97;;;;;;;13.11;100.00;94295.94;5093980;28;20205;-77
2021/07/22 00:48:31;;;;;;;17.38;9.70;;;;;;;13.05;100.00;94291.50;5093978;28;20197;-78
2021/07/22 00:50:58;;;;;;;17.63;9.60;;;;;;;13.01;100.00;94298.97;5093214;28;20255;-77
2021/07/22 00:53:24;;;;;;;20.00;9.83;;;;;;;12.99;100.00;94285.25;5093880;28;20202;-77
2021/07/22 00:55:51;;;;;;;17.17;9.40;;;;;;;12.96;100.00;94293.53;5093732;28;20549;-78
2021/07/22 00:58:17;;;;;;;22.33;9.20;;;;;;;12.98;100.00;94290.69;5092981;28;20206;-78
2021/07/22 01:00:45;;;;;;;15.93;9.57;;;;;;;12.90;100.00;94289.88;5093483;28;20198;-78
2021/07/22 01:03:11;;;;;;;20.93;10.13;;;;;;;12.88;100.00;94291.91;5093723;28;20607;-78
2021/07/22 01:05:38;;;;;;;17.70;9.27;;;;;;;12.98;100.00;94295.94;5093684;28;20206;-79
2021/07/22 01:08:04;;;;;;;24.37;9.73;;;;;;;12.99;100.00;94287.06;5093440;28;20274;-78
2021/07/22 01:10:31;;;;;;;25.37;10.77;;;;;;;12.92;100.00;94282.63;5093466;28;20251;-77
2021/07/22 01:12:57;;;;;;;20.37;11.07;;;;;;;12.91;100.00;94286.25;5093328;28;20715;-78
2021/07/22 01:15:24;;;;;;;24.53;10.60;;;;;;;12.89;100.00;94282.22;5093583;28;20194;-77
2021/07/22 01:17:52;;;;;;;18.90;10.60;;;;;;;12.82;100.00;94276.97;5093219;28;20534;-77
2021/07/22 01:20:20;;;;;;;19.63;10.95;;;;;;;12.80;100.00;94284.22;5092835;28;20440;-79
2021/07/22 01:22:49;;;;;;;24.23;11.20;;;;;;;12.81;100.00;94275.38;5093139;28;20203;-79
2021/07/22 01:25:18;;;;;;;26.03;11.67;;;;;;;12.77;100.00;94279.38;5093115;28;20190;-79
2021/07/22 01:27:45;;;;;;;25.33;11.47;;;;;;;12.82;100.00;94276.97;5093373;28;20330;-80
2021/07/22 01:30:13;;;;;;;21.53;10.00;;;;;;;12.78;100.00;94270.53;5093712;28;20206;-79
2021/07/22 01:32:40;;;;;;;19.87;10.07;;;;;;;12.75;100.00;94266.50;5093084;28;20569;-78
2021/07/22 01:35:08;;;;;;;22.87;10.60;;;;;;;12.81;100.00;94266.72;5093102;28;20226;-78
2021/07/22 01:37:38;;;;;;;19.40;9.93;;;;;;;12.71;100.00;94267.13;5093105;28;20198;-78
2021/07/22 01:40:05;;;;;;;19.07;9.60;;;;;;;12.56;100.00;94270.72;5092954;28;20198;-78
2021/07/22 01:42:32;;;;;;;18.53;10.30;;;;;;;12.43;100.00;94267.28;5093243;28;20612;-79
2021/07/22 01:44:58;;;;;;;21.67;9.70;;;;;;;12.32;100.00;94261.66;5093282;28;20255;-78
2021/07/22 01:47:25;;;;;;;21.97;10.23;;;;;;;12.25;100.00;94260.00;5093087;28;20233;-80
2021/07/22 01:49:52;;;;;;;23.17;10.70;;;;;;;12.20;100.00;94263.22;5092936;28;20283;-79
2021/07/22 01:52:19;;;;;;;24.10;11.77;;;;;;;12.24;100.00;94258.38;5092960;28;20252;-80
2021/07/22 01:54:47;;;;;;;32.87;11.43;;;;;;;12.24;100.00;94255.75;5092841;28;20285;-78
2021/07/22 01:57:14;;;;;;;24.07;11.80;;;;;;;12.20;100.00;94268.44;5093070;28;20194;-78
2021/07/22 01:59:40;;;;;;;25.67;11.60;;;;;;;12.16;100.00;94254.16;5092878;28;20260;-79
2021/07/22 02:02:08;;;;;;;21.13;11.57;;;;;;;12.18;100.00;94255.56;5092872;28;20202;-78
2021/07/22 02:04:35;;;;;;;22.47;10.87;;;;;;;12.23;100.00;94254.16;5092842;28;20247;-80
2021/07/22 02:07:02;;;;;;;20.93;10.87;;;;;;;12.13;100.00;94257.16;5092530;28;20248;-78
2021/07/22 02:09:28;;;;;;;24.57;11.53;;;;;;;12.18;100.00;94252.94;5096260;28;20209;-78
2021/07/22 02:11:57;;;;;;;23.10;12.13;;;;;;;12.18;100.00;94255.56;5096777;28;20669;-77
2021/07/22 02:14:25;;;;;;;20.77;11.20;;;;;;;12.14;100.00;94243.88;5096886;28;20209;-78
2021/07/22 02:16:51;;;;;;;19.97;10.20;;;;;;;11.99;100.00;94245.84;5096636;28;20259;-80
2021/07/22 02:19:18;;;;;;;23.43;11.23;;;;;;;11.91;100.00;94246.84;5096716;28;20202;-79
2021/07/22 02:21:45;;;;;;;26.93;12.37;;;;;;;11.91;100.00;94253.88;5096715;28;20223;-78
2021/07/22 02:24:13;;;;;;;25.53;12.47;;;;;;;11.93;100.00;94251.88;5085784;28;20245;-80
2021/07/22 02:26:39;;;;;;;20.60;11.43;;;;;;;11.91;100.00;94249.44;5076189;28;20256;-79
2021/07/22 02:29:08;;;;;;;20.40;11.03;;;;;;;11.94;100.00;94249.06;5076297;28;20195;-77
2021/07/22 02:31:35;;;;;;;23.77;11.43;;;;;;;11.98;100.00;94260.75;5076271;28;20252;-80
2021/07/22 02:34:02;;;;;;;21.23;11.17;;;;;;;11.97;100.00;94253.91;5076038;28;20195;-78
2021/07/22 02:36:28;;;;;;;21.53;11.83;;;;;;;11.99;100.00;94253.69;5076112;28;20206;-79
2021/07/22 02:38:55;;;;;;;24.37;11.50;;;;;;;12.11;100.00;94246.88;5076199;28;20198;-77
2021/07/22 02:41:21;;;;;;;21.20;11.20;;;;;;;12.18;100.00;94244.28;5076145;28;20252;-78
2021/07/22 02:43:47;;;;;;;20.83;11.07;;;;;;;12.23;100.00;94257.59;5076006;28;20198;-78
2021/07/22 02:46:15;;;;;;;20.43;10.97;;;;;;;12.26;100.00;94256.38;5075894;28;20203;-78
2021/07/22 02:48:42;;;;;;;21.45;12.32;;;;;;;12.23;100.00;94262.03;5075019;28;20859;-79
2021/07/22 02:51:09;;;;;;;23.60;10.53;;;;;;;12.13;100.00;94265.81;5075848;28;20660;-80
2021/07/22 02:53:36;;;;;;;19.37;10.30;;;;;;;12.12;100.00;94261.56;5075783;28;20248;-79
2021/07/22 02:56:04;;;;;;;20.03;10.43;;;;;;;12.10;100.00;94258.34;5076121;28;20260;-80
2021/07/22 02:58:30;;;;;;;23.43;11.47;;;;;;;12.08;100.00;94259.56;5095844;28;20653;-79
2021/07/22 03:00:57;;;;;;;21.60;12.27;;;;;;;12.12;100.00;94255.53;5095956;28;20205;-80
2021/07/22 03:03:25;;;;;;;22.47;10.30;;;;;;;12.08;100.00;94265.59;5095881;28;20259;-78
2021/07/22 03:05:51;;;;;;;22.80;10.57;;;;;;;11.91;100.00;94265.16;5095803;28;20664;-80
2021/07/22 03:08:17;;;;;;;19.37;10.23;;;;;;;11.81;100.00;94265.50;5095841;28;20278;-79
2021/07/22 03:10:44;;;;;;;21.10;11.53;;;;;;;11.74;100.00;94272.50;5095903;28;20201;-79
2021/07/22 03:13:10;;;;;;;22.67;10.67;;;;;;;11.69;100.00;94272.28;5095784;28;20205;-80
2021/07/22 03:15:37;;;;;;;23.87;11.17;;;;;;;11.63;100.00;94263.41;5095771;28;20228;-81
2021/07/22 03:18:03;;;;;;;21.63;10.73;;;;;;;11.62;100.00;94271.44;5095527;28;20702;-80
2021/07/22 03:20:31;;;;;;;21.87;10.90;;;;;;;11.78;100.00;94265.06;5094802;28;20210;-79
2021/07/22 03:23:01;;;;;;;23.43;12.07;;;;;;;11.81;100.00;94275.16;5095625;28;20220;-79
2021/07/22 03:25:27;;;;;;;22.07;11.33;;;;;;;11.85;100.00;94268.50;5095551;28;20198;-80
2021/07/22 03:27:59;;;;;;;26.13;12.00;;;;;;;11.89;100.00;94266.31;5095367;28;20696;-80
2021/07/22 03:30:26;;;;;;;24.17;11.83;;;;;;;11.93;100.00;94268.38;5095410;28;20209;-79
2021/07/22 03:32:52;;;;;;;26.43;11.97;;;;;;;11.93;100.00;94268.38;5095577;28;20201;-77
2021/07/22 03:35:19;;;;;;;23.27;11.60;;;;;;;11.83;100.00;94266.09;5095113;28;20226;-78
2021/07/22 03:37:47;;;;;;;18.77;10.40;;;;;;;11.69;100.00;94272.28;5095352;28;20198;-78
2021/07/22 03:40:14;;;;;;;19.23;9.50;;;;;;;11.58;100.00;94275.44;5095243;28;20198;-78
2021/07/22 03:42:40;;;;;;;19.07;10.63;;;;;;;11.48;100.00;94276.59;5095207;28;20202;-80
2021/07/22 03:45:07;;;;;;;21.70;10.83;;;;;;;11.40;100.00;94268.91;5095023;28;20197;-78
2021/07/22 03:47:34;;;;;;;24.73;10.40;;;;;;;11.37;100.00;94269.28;5095131;28;20222;-78
2021/07/22 03:50:02;;;;;;;24.50;11.37;;;;;;;11.57;100.00;94268.59;5095092;28;20199;-77
2021/07/22 03:52:28;;;;;;;24.03;11.03;;;;;;;11.58;100.00;94262.38;5094936;28;20205;-77
2021/07/22 03:54:56;;;;;;;29.00;11.40;;;;;;;11.55;100.00;94265.38;5094920;28;20198;-77
2021/07/22 03:57:23;;;;;;;29.70;12.23;;;;;;;11.56;100.00;94272.22;5094867;28;20198;-78
2021/07/22 03:59:49;;;;;;;26.63;12.40;;;;;;;11.55;100.00;94266.19;5094676;28;20199;-77
2021/07/22 04:02:15;;;;;;;29.77;12.80;;;;;;;11.60;100.00;94260.38;5094960;28;20198;-77
2021/07/22 04:04:42;;;;;;;30.97;12.50;;;;;;;11.65;100.00;94265.81;5094756;28;20202;-77
2021/07/22 04:07:08;;;;;;;25.03;11.80;;;;;;;11.55;100.00;94260.16;5094698;28;20452;-78
2021/07/22 04:09:35;;;;;;;23.70;10.87;;;;;;;11.48;100.00;94260.13;5094577;28;20217;-78
2021/07/22 04:12:03;;;;;;;24.20;11.07;;;;;;;11.43;100.00;94263.31;5094424;28;20230;-78
2021/07/22 04:14:29;;;;;;;23.60;11.47;;;;;;;11.43;100.00;94263.31;5094625;28;20198;-78
2021/07/22 04:16:56;;;;;;;23.97;11.57;;;;;;;11.47;100.00;94261.94;5094370;28;20654;-77
2021/07/22 04:19:22;;;;;;;27.47;11.90;;;;;;;11.53;100.00;94260.34;5094470;28;20202;-78
2021/07/22 04:21:48;;;;;;;21.27;10.80;;;;;;;11.56;100.00;94256.53;5094335;28;20202;-77
2021/07/22 04:24:15;;;;;;;24.33;11.80;;;;;;;11.54;100.00;94255.91;5082988;28;20241;-77
2021/07/22 04:26:41;;;;;;;20.20;10.80;;;;;;;11.57;100.00;94253.69;5073934;28;20199;-78
2021/07/22 04:29:09;;;;;;;22.20;10.60;;;;;;;11.60;100.00;94257.75;5074099;28;20230;-79
2021/07/22 04:31:36;;;;;;;25.77;11.77;;;;;;;11.62;100.00;94258.34;5073967;28;20201;-77
2021/07/22 04:34:02;;;;;;;19.37;10.50;;;;;;;11.65;100.00;94261.38;5073841;28;20248;-77
2021/07/22 04:36:31;;;;;;;23.20;11.07;;;;;;;11.69;100.00;94259.22;5073851;28;20207;-76
2021/07/22 04:38:57;;;;;;;20.53;10.60;;;;;;;11.71;100.00;94257.19;5073863;28;20247;-77
2021/07/22 04:41:24;;;;;;;21.53;10.70;;;;;;;11.72;100.00;94255.38;5073635;28;20260;-78
2021/07/22 04:43:50;;;;;;;19.80;10.37;;;;;;;11.75;100.00;94266.25;5073825;28;20228;-78
2021/07/22 04:46:18;;;;;;;27.07;13.17;;;;;;;11.82;100.00;94256.66;5073193;28;20195;-78
2021/07/22 04:48:44;;;;;;;27.27;11.73;;;;;;;11.91;100.00;94253.88;5073541;28;20234;-77
2021/07/22 04:51:11;;;;;;;21.87;11.23;;;;;;;11.98;100.00;94254.72;5073606;28;20225;-78
2021/07/22 04:53:37;;;;;;;31.27;11.43;;;;;;;12.13;100.00;94260.56;5073533;28;20206;-77
2021/07/22 04:56:04;;;;;;;22.17;11.50;;;;;;;12.24;100.00;94263.63;5073357;28;20256;-77
2021/07/22 04:58:30;;;;;;;26.17;11.93;;;;;;;12.34;100.00;94258.78;5075365;28;20199;-77
2021/07/22 05:00:57;;;;;;;24.37;12.03;;;;;;;12.41;100.00;94267.50;5091637;28;20198;-76
2021/07/22 05:03:24;;;;;;;18.77;10.80;;;;;;;12.59;100.00;94257.22;5093745;28;20202;-77
2021/07/22 05:05:51;;;;;;;26.50;10.90;;;;;;;12.75;100.00;94263.88;5093497;28;20198;-78
2021/07/22 05:08:17;;;;;;;19.30;10.40;;;;;;;12.85;100.00;94262.69;5093303;28;20688;-77
2021/07/22 05:10:43;;;;;;;21.27;10.43;;;;;;;12.95;100.00;94253.38;5093245;28;20202;-78
2021/07/22 05:13:11;;;;;;;20.00;10.27;;;;;;;13.06;100.00;94251.97;5093593;28;20235;-77
2021/07/22 05:15:37;;;;;;;18.00;10.18;;;;;;;13.16;100.00;94256.81;5093559;28;20202;-77
2021/07/22 05:18:04;;;;;;;23.30;10.45;;;;;;;13.26;100.00;94265.06;5093571;28;20198;-76
2021/07/22 05:20:31;;;;;;;16.33;9.80;;;;;;;13.37;100.00;94268.88;5093422;28;20251;-78
2021/07/22 05:23:00;;;;;;;19.65;9.73;;;;;;;13.50;100.00;94262.81;5093271;28;20206;-78
2021/07/22 05:25:26;;;;;;;16.63;9.40;;;;;;;13.54;100.00;94268.44;5093504;28;20206;-76
2021/07/22 05:27:53;;;;;;;15.95;9.05;;;;;;;13.69;100.00;94264.56;5093347;28;20251;-77
2021/07/22 05:30:19;;;;;;;15.98;9.25;;;;;;;13.83;100.00;94267.94;5093856;28;20251;-77
2021/07/22 05:32:46;;;;;;;17.92;9.77;;;;;;;13.95;100.00;94273.34;5093206;28;20244;-78
2021/07/22 05:35:12;;;;;;;19.83;9.23;;;;;;;14.11;100.00;94279.16;5093059;28;20242;-77
2021/07/22 05:37:40;;;;;;;17.08;8.90;;;;;;;14.21;100.00;94277.66;5093548;28;20198;-78
2021/07/22 05:40:08;;;;;;;20.80;8.55;;;;;;;14.76;100.00;94277.16;5093245;28;20255;-78
2021/07/22 05:42:34;;;;;;;15.32;8.60;;;;;;;15.50;100.00;94282.59;5092533;28;20595;-78
2021/07/22 05:45:00;;;;;;;12.88;7.53;;;;;;;15.84;100.00;94284.88;5092974;28;20653;-77
2021/07/22 05:47:27;;;;;;;15.38;7.30;;;;;;;16.69;100.00;94285.81;5093092;28;20244;-77
2021/07/22 05:49:53;;;;;;;11.60;6.60;;;;;;;17.79;100.00;94284.38;5093357;28;20283;-78
2021/07/22 05:52:20;;;;;;;9.52;6.40;;;;;;;18.96;100.00;94286.84;5092905;28;20209;-77
2021/07/22 05:54:47;;;;;;;10.77;6.32;;;;;;;19.87;100.00;94283.19;5093157;28;20197;-78
2021/07/22 05:57:14;;;;;;;17.70;6.65;;;;;;;20.45;93.35;94284.38;5093089;28;20411;-78
2021/07/22 05:59:40;;;;;;;11.38;5.35;;;;;;;21.45;88.95;94280.50;5092828;28;20676;-78
2021/07/22 06:02:07;;;;;;;10.68;5.60;;;;;;;22.08;81.83;94282.44;5092897;28;20252;-78
2021/07/22 06:04:34;;;;;;;8.88;4.78;;;;;;;22.81;77.42;94285.06;5092792;28;20225;-77
2021/07/22 06:07:01;;;;;;;10.23;5.30;;;;;;;23.23;72.45;94283.25;5092836;28;20709;-77
2021/07/22 06:09:27;;;;;;;11.52;6.30;;;;;;;23.19;72.08;94277.66;5092814;28;20279;-78
2021/07/22 06:11:55;;;;;;;9.48;5.70;;;;;;;22.62;74.34;94287.44;5092923;28;20198;-78
2021/07/22 06:14:21;;;;;;;9.98;5.90;;;;;;;22.83;70.46;94293.59;5092853;28;20275;-78
2021/07/22 06:16:48;;;;;;;9.77;5.72;;;;;;;22.31;73.18;94289.22;5092820;28;20251;-78
2021/07/22 06:19:14;;;;;;;9.93;5.65;;;;;;;22.15;74.68;94278.50;5092718;28;20247;-77
2021/07/22 06:21:40;;;;;;;11.95;6.43;;;;;;;21.76;77.29;94286.00;5092859;28;20202;-77
2021/07/22 06:24:07;;;;;;;9.68;6.03;;;;;;;21.12;79.71;94282.38;5082650;28;20272;-77
2021/07/22 06:26:35;;;;;;;11.10;6.72;;;;;;;19.87;91.69;94277.88;5072433;28;20205;-78
2021/07/22 06:29:03;;;;;;;10.07;6.13;;;;;;;20.11;92.75;94276.56;5071587;28;20321;-79
2021/07/22 06:31:30;;;;;;;9.82;6.50;;;;;;;19.67;96.86;94281.00;5070930;28;20265;-78
2021/07/22 06:33:57;;;;;;;11.90;6.88;;;;;;;20.17;89.36;94280.09;5071533;28;20272;-78
2021/07/22 06:36:23;;;;;;;10.90;6.68;;;;;;;20.02;90.12;94287.84;5070793;28;20230;-78
2021/07/22 06:38:49;;;;;;;8.90;6.13;;;;;;;20.38;90.59;94285.63;5069539;28;20841;-77
2021/07/22 06:41:19;;;;;;;12.55;6.90;;;;;;;19.89;96.03;94279.22;5070988;28;20203;-77
2021/07/22 06:43:46;;;;;;;13.32;7.30;;;;;;;20.40;87.03;94280.88;5071984;28;20207;-78
2021/07/22 06:46:13;;;;;;;13.82;6.63;;;;;;;20.37;89.65;94281.34;5071906;28;20199;-78
2021/07/22 06:48:40;;;;;;;10.85;6.85;;;;;;;20.58;86.63;94282.38;5071591;28;20230;-78
2021/07/22 06:51:08;;;;;;;15.35;6.72;;;;;;;20.10;90.25;94276.81;5071935;28;20232;-78
2021/07/22 06:53:34;;;;;;;14.48;7.28;;;;;;;19.99;91.84;94277.75;5072140;28;20289;-80
2021/07/22 06:56:02;;;;;;;10.77;6.53;;;;;;;20.07;90.02;94272.03;5074090;28;20206;-78
2021/07/22 06:58:29;;;;;;;9.32;6.35;;;;;;;19.74;92.75;94273.72;5075689;28;20280;-78
2021/07/22 07:00:55;;;;;;;11.93;7.10;;;;;;;20.01;93.44;94271.16;5075426;28;20202;-78
2021/07/22 07:03:23;;;;;;;12.88;6.90;;;;;;;20.12;92.06;94280.03;5075375;28;20244;-78
2021/07/22 07:05:50;;;;;;;12.57;7.00;;;;;;;20.11;92.45;94278.44;5093064;28;20198;-79
2021/07/22 07:08:16;;;;;;;11.90;6.72;;;;;;;20.19;88.76;94278.00;5095434;28;20285;-80
2021/07/22 07:10:43;;;;;;;11.15;6.75;;;;;;;20.07;90.35;94277.34;5095416;28;20202;-79
2021/07/22 07:13:09;;;;;;;12.52;7.32;;;;;;;19.89;95.32;94268.63;5095193;28;20248;-80
2021/07/22 07:15:37;;;;;;;13.70;7.95;;;;;;;19.99;92.76;94275.13;5094017;28;20436;-77
2021/07/22 07:18:04;;;;;;;11.23;7.10;;;;;;;20.04;93.36;94275.16;5094934;28;20202;-80
2021/07/22 07:20:31;;;;;;;17.30;7.50;;;;;;;19.95;91.76;94269.47;5095376;28;20770;-76
2021/07/22 07:22:58;;;;;;;11.48;7.00;;;;;;;20.04;91.62;94275.16;5095073;28;20336;-78
2021/07/22 07:25:25;;;;;;;12.02;6.55;;;;;;;20.08;89.85;94277.06;5095395;28;20606;-79
2021/07/22 07:27:51;;;;;;;13.77;7.38;;;;;;;19.91;89.85;94268.38;5095184;28;20569;-78
2021/07/22 07:30:19;;;;;;;11.82;6.60;;;;;;;20.03;90.00;94270.91;5095290;28;20226;-77
2021/07/22 07:32:46;;;;;;;11.48;7.35;;;;;;;19.74;91.44;94279.00;5095553;28;20259;-78
2021/07/22 07:35:13;;;;;;;14.80;6.90;;;;;;;19.45;93.40;94276.50;5095307;28;20234;-79
2021/07/22 07:37:41;;;;;;;12.70;7.47;;;;;;;19.40;96.26;94276.41;5095423;28;20244;-79
2021/07/22 07:40:09;;;;;;;12.82;7.43;;;;;;;19.60;97.33;94270.59;5095240;28;20660;-79
2021/07/22 07:42:36;;;;;;;18.05;7.47;;;;;;;19.89;98.42;94276.56;5095095;28;20645;-80
2021/07/22 07:45:04;;;;;;;14.23;7.97;;;;;;;20.08;94.33;94263.00;5095399;28;20643;-80
2021/07/22 07:47:31;;;;;;;14.85;7.88;;;;;;;20.30;95.60;94270.94;5094996;28;20657;-80
2021/07/22 07:49:58;;;;;;;16.80;7.35;;;;;;;20.24;98.65;94274.59;5095042;28;20283;-80
2021/07/22 07:52:25;;;;;;;14.65;7.80;;;;;;;20.31;97.26;94269.91;5095118;28;20563;-81
2021/07/22 07:54:54;;;;;;;13.27;7.68;;;;;;;20.37;97.95;94265.44;5094945;28;20202;-80
2021/07/22 07:57:20;;;;;;;13.32;7.95;;;;;;;20.49;97.87;94264.25;5094998;28;20198;-79
2021/07/22 07:59:47;;;;;;;14.18;7.55;;;;;;;20.45;96.07;94257.88;5094782;28;20575;-79
2021/07/22 08:02:14;;;;;;;15.23;7.18;;;;;;;20.47;95.04;94265.56;5094956;28;20251;-78
2021/07/22 08:04:41;;;;;;;15.25;7.60;;;;;;;20.32;95.78;94263.56;5094877;28;20232;-78
2021/07/22 08:07:07;;;;;;;14.57;7.85;;;;;;;20.34;97.85;94256.94;5094412;28;20252;-78
2021/07/22 08:09:34;;;;;;;14.10;7.85;;;;;;;20.10;96.93;94260.91;5094701;28;20271;-77
2021/07/22 08:12:02;;;;;;;14.18;8.02;;;;;;;20.27;97.16;94259.00;5094925;28;20595;-78
2021/07/22 08:14:29;;;;;;;17.08;7.82;;;;;;;20.30;96.93;94263.81;5094840;28;20237;-78
2021/07/22 08:16:56;;;;;;;16.92;8.07;;;;;;;20.36;96.43;94269.16;5094489;28;20722;-77
2021/07/22 08:19:22;;;;;;;12.13;7.10;;;;;;;20.45;97.92;94257.88;5094466;28;20202;-77
2021/07/22 08:21:49;;;;;;;18.05;7.68;;;;;;;20.41;95.15;94263.91;5094507;28;20607;-77
2021/07/22 08:24:15;;;;;;;13.98;7.55;;;;;;;20.62;95.14;94256.97;5082974;28;20194;-77
2021/07/22 08:26:41;;;;;;;13.93;7.97;;;;;;;20.58;93.47;94261.94;5074337;28;20260;-79
2021/07/22 08:29:09;;;;;;;12.63;7.80;;;;;;;20.38;98.85;94257.25;5074129;28;20249;-78
2021/07/22 08:31:37;;;;;;;16.88;7.97;;;;;;;20.39;93.16;94264.16;5074064;28;20203;-79
2021/07/22 08:34:05;;;;;;;17.92;7.93;;;;;;;20.51;93.71;94266.66;5073667;28;20198;-77
2021/07/22 08:36:31;;;;;;;17.55;8.93;;;;;;;20.55;93.71;94266.97;5073893;28;20810;-78
2021/07/22 08:39:00;;;;;;;18.38;7.88;;;;;;;20.60;96.59;94267.00;5073739;28;20689;-79
2021/07/22 08:41:26;;;;;;;13.50;7.60;;;;;;;20.67;93.43;94263.13;5073683;28;20634;-78
2021/07/22 08:43:53;;;;;;;13.35;8.00;;;;;;;20.78;92.04;94265.88;5073692;28;20194;-81
2021/07/22 08:46:21;;;;;;;14.38;8.02;;;;;;;20.73;93.98;94266.63;5073763;28;20206;-80
2021/07/22 08:48:47;;;;;;;14.85;7.97;;;;;;;20.82;94.00;94273.09;5073587;28;20203;-80
2021/07/22 08:51:14;;;;;;;17.10;8.30;;;;;;;20.99;94.36;94261.56;5073491;28;20199;-79
2021/07/22 08:53:41;;;;;;;14.00;7.68;;;;;;;20.97;90.86;94264.47;5073506;28;20194;-79
2021/07/22 08:56:09;;;;;;;15.88;8.55;;;;;;;21.13;90.97;94265.38;5073637;28;20208;-80
2021/07/22 08:58:38;;;;;;;16.80;7.95;;;;;;;21.04;92.14;94265.03;5073637;28;20194;-78
2021/07/22 09:01:07;;;;;;;19.52;8.98;;;;;;;20.94;92.21;94264.97;5075258;28;20279;-80
2021/07/22 09:03:35;;;;;;;24.73;8.18;;;;;;;21.11;95.60;94264.81;5093602;28;20620;-78
2021/07/22 09:06:13;;;;;;;20.85;9.35;;;;;;;21.31;90.29;94266.84;5093517;28;20206;-77
2021/07/22 09:08:39;;;;;;;13.73;8.50;;;;;;;21.23;90.89;94257.50;5093665;28;20209;-78
2021/07/22 09:11:06;;;;;;;16.27;8.30;;;;;;;21.17;91.66;94263.03;5093500;28;20225;-79
2021/07/22 09:13:33;;;;;;;22.48;9.27;;;;;;;21.17;93.85;94261.16;5093451;28;20220;-79
2021/07/22 09:15:59;;;;;;;17.75;8.95;;;;;;;21.21;96.04;94256.13;5093643;28;20209;-79
2021/07/22 09:18:30;;;;;;;14.18;7.65;;;;;;;21.34;96.11;94263.66;5092613;28;20327;-79
2021/07/22 09:21:17;;;;;;;14.90;8.38;;;;;;;21.44;90.93;94258.41;5093626;28;20206;-81
2021/07/22 09:24:05;;;;;;;18.20;7.88;;;;;;;21.59;92.32;94256.94;5093248;28;20837;-80
2021/07/22 09:26:33;;;;;;;16.85;9.30;;;;;;;21.48;94.70;94258.72;5093275;28;20476;-78
2021/07/22 09:29:07;;;;;;;20.55;8.82;;;;;;;21.44;92.48;94253.09;5093180;28;20210;-79
2021/07/22 09:31:34;;;;;;;16.15;7.78;;;;;;;21.53;92.67;94255.31;5093394;28;20201;-78
2021/07/22 09:34:01;;;;;;;22.33;9.32;;;;;;;21.63;99.34;94250.03;5093059;28;20228;-78
2021/07/22 09:36:34;;;;;;;15.43;8.10;;;;;;;21.69;91.36;94251.69;5093104;28;20202;-79
2021/07/22 09:39:22;;;;;;;16.85;8.90;;;;;;;21.73;90.64;94250.13;5093007;28;20206;-78
2021/07/22 09:41:59;;;;;;;16.40;8.15;;;;;;;21.71;92.43;94246.13;5092762;28;20194;-79
2021/07/22 09:44:36;;;;;;;13.63;7.90;;;;;;;21.68;90.49;94252.72;5093074;28;20300;-81
2021/07/22 09:47:04;;;;;;;14.63;8.10;;;;;;;22.04;91.17;94254.78;5092917;28;20206;-79
2021/07/22 09:49:37;;;;;;;17.42;8.45;;;;;;;22.09;91.63;94246.81;5092901;28;20271;-78
2021/07/22 09:52:10;;;;;;;14.95;8.10;;;;;;;22.03;86.54;94258.47;5092824;28;20671;-78
2021/07/22 09:54:38;;;;;;;16.30;8.13;;;;;;;21.89;87.05;94243.00;5093120;28;20569;-79
2021/07/22 09:57:14;;;;;;;12.20;7.60;;;;;;;21.94;88.88;94247.56;5092884;28;20666;-79
2021/07/22 09:59:45;;;;;;;14.98;8.23;;;;;;;21.88;89.88;94245.91;5092852;28;20209;-79
2021/07/22 10:02:18;;;;;;;21.65;8.38;;;;;;;21.93;89.43;94248.59;5092717;28;20198;-74
2021/07/22 10:04:49;;;;;;;16.88;7.72;;;;;;;22.12;86.18;94252.41;5093066;28;20209;-78
2021/07/22 10:07:21;;;;;;;15.32;8.10;;;;;;;22.14;88.13;94239.63;5093293;28;20289;-80
2021/07/22 10:09:53;;;;;;;18.17;7.85;;;;;;;22.12;84.46;94241.75;5092867;28;20223;-79
2021/07/22 10:12:21;;;;;;;12.98;7.32;;;;;;;22.23;87.22;94247.13;5092753;28;20198;-79
2021/07/22 10:14:53;;;;;;;15.73;8.00;;;;;;;22.27;85.04;94237.56;5092760;28;20202;-79
2021/07/22 10:17:20;;;;;;;15.95;7.78;;;;;;;22.26;83.35;94238.63;5092927;28;20198;-77
2021/07/22 10:19:46;;;;;;;12.63;7.80;;;;;;;22.18;86.17;94235.41;5092789;28;20589;-79
2021/07/22 10:22:13;;;;;;;15.90;8.00;;;;;;;22.46;81.99;94240.56;5092687;28;20225;-80
2021/07/22 10:24:43;;;;;;;14.18;7.75;;;;;;;22.64;87.34;94241.91;5077929;28;20199;-80
2021/07/22 10:27:12;;;;;;;13.45;7.70;;;;;;;22.43;79.00;94239.25;5072456;28;20202;-79
2021/07/22 10:29:39;;;;;;;12.43;8.27;;;;;;;22.34;77.71;94238.94;5074214;28;20219;-78
2021/07/22 10:32:10;;;;;;;19.10;8.38;;;;;;;22.44;78.65;94232.84;5076297;28;20234;-78
2021/07/22 10:34:38;;;;;;;18.95;8.50;;;;;;;22.44;77.53;94226.72;5076180;28;20237;-78
2021/07/22 10:37:17;;;;;;;13.30;7.40;;;;;;;22.72;79.92;94228.09;5076252;28;20195;-78
2021/07/22 10:40:10;;;;;;;18.55;8.60;;;;;;;22.85;77.07;94227.56;5076119;28;20289;-79
2021/07/22 10:42:41;;;;;;;15.10;7.97;;;;;;;23.04;79.56;94230.47;5076162;28;20206;-79
2021/07/22 10:45:28;;;;;;;14.00;8.23;;;;;;;23.23;77.29;94216.63;5075926;28;20199;-79
2021/07/22 10:48:25;;;;;;;15.65;7.57;;;;;;;22.87;77.71;94219.31;5075939;28;20253;-77
2021/07/22 10:51:13;;;;;;;14.57;8.00;;;;;;;22.97;85.15;94219.31;5075018;28;20234;-79
2021/07/22 10:53:51;;;;;;;13.40;8.13;;;;;;;22.78;76.35;94227.00;5075920;28;20207;-79
2021/07/22 10:56:54;;;;;;;12.70;7.28;;;;;;;22.96;80.76;94224.91;5075750;28;20625;-80
2021/07/22 10:59:54;;;;;;;15.40;8.60;;;;;;;23.15;78.43;94226.00;5071799;28;20202;-79
2021/07/22 11:02:41;;;;;;;11.70;7.25;;;;;;;23.47;76.17;94211.53;5075787;28;20619;-79
2021/07/22 11:05:08;;;;;;;14.10;7.78;;;;;;;23.37;76.20;94212.38;5075772;28;20199;-80
2021/07/22 11:07:36;;;;;;;15.73;7.93;;;;;;;23.35;77.40;94219.03;5075367;28;20225;-79
2021/07/22 11:10:08;;;;;;;14.15;8.35;;;;;;;23.56;78.35;94215.25;5075602;28;20230;-79
2021/07/22 11:12:56;;;;;;;18.60;8.65;;;;;;;23.47;72.66;94216.88;5090644;28;20202;-75
2021/07/22 11:15:58;;;;;;;12.10;7.57;;;;;;;23.56;75.33;94212.56;5095982;28;20202;-79
2021/07/22 11:19:05;;;;;;;15.13;8.82;;;;;;;23.78;76.08;94211.44;5095853;28;20197;-79
2021/07/22 11:21:35;;;;;;;16.90;8.70;;;;;;;23.73;73.99;94211.47;5092138;28;20209;-80
2021/07/22 11:24:05;;;;;;;16.75;7.97;;;;;;;23.83;73.15;94208.78;5095726;28;20209;-80
2021/07/22 11:26:33;;;;;;;14.80;8.45;;;;;;;23.80;71.42;94206.66;5095650;28;20284;-80